Time;durP1;ratioP1;P1;durP2;ratioP2;P2;SDS_P1;SDS_P2;PMS_P1;PMS_P2;Temp;Humidity;BMP_temperature;BMP_pressure;BME280_temperature;BME280_humidity;BME280_pressure;Samples;Min_cycle;Max_cycle;Signal;HPM_P1;HPM_P2
2021/06/30 00:02:11;;;;;;;4.32;3.75;;;21.50;99.90;;;;;;5104619;28;20029;-65
2021/06/30 00:04:37;;;;;;;4.30;3.58;;;21.50;99.90;;;;;;5091261;28;20040;-65
2021/06/30 00:07:04;;;;;;;4.55;3.83;;;21.50;99.90;;;;;;5098820;28;20031;-64
2021/06/30 00:09:30;;;;;;;4.18;3.33;;;21.50;99.90;;;;;;5112326;28;20041;-64
2021/06/30 00:11:56;;;;;;;4.05;3.58;;;21.40;99.90;;;;;;5112242;28;20031;-64
2021/06/30 00:14:22;;;;;;;4.25;3.60;;;21.40;99.90;;;;;;5110208;28;20028;-63
2021/06/30 00:16:49;;;;;;;4.38;3.97;;;21.40;99.90;;;;;;5091769;28;20519;-65
2021/06/30 00:19:15;;;;;;;4.97;4.07;;;21.40;99.90;;;;;;5091379;28;20448;-63
2021/06/30 00:21:41;;;;;;;4.05;3.63;;;21.40;99.90;;;;;;5094300;28;20040;-64
2021/06/30 00:24:07;;;;;;;4.30;3.63;;;21.40;99.90;;;;;;5105622;28;20044;-64
2021/06/30 00:26:34;;;;;;;4.57;4.00;;;21.40;99.90;;;;;;5098072;28;20024;-63
2021/06/30 00:29:01;;;;;;;4.95;4.00;;;21.40;99.90;;;;;;5099280;28;20073;-64
2021/06/30 00:31:26;;;;;;;4.93;3.60;;;21.30;99.90;;;;;;5092570;28;20043;-64
2021/06/30 00:33:52;;;;;;;5.85;3.90;;;21.40;99.90;;;;;;5098920;28;20023;-64
2021/06/30 00:36:18;;;;;;;5.15;3.85;;;21.40;99.90;;;;;;5096853;28;20028;-65
2021/06/30 00:38:43;;;;;;;4.65;4.00;;;21.30;99.90;;;;;;5091039;28;20073;-65
2021/06/30 00:41:09;;;;;;;3.97;3.55;;;21.30;99.90;;;;;;5091422;28;20026;-63
2021/06/30 00:43:35;;;;;;;4.40;3.80;;;21.30;99.90;;;;;;5091069;28;20123;-61
2021/06/30 00:46:00;;;;;;;4.68;3.80;;;21.30;99.90;;;;;;5097654;28;20071;-62
2021/06/30 00:48:26;;;;;;;5.28;3.70;;;21.30;99.90;;;;;;5091579;28;20060;-63
2021/06/30 00:50:52;;;;;;;5.30;3.83;;;21.30;99.90;;;;;;5090954;28;20016;-63
2021/06/30 00:53:18;;;;;;;5.25;4.18;;;21.30;99.90;;;;;;5090779;28;20028;-63
2021/06/30 00:55:44;;;;;;;5.13;3.95;;;21.30;99.90;;;;;;5076782;28;20046;-63
2021/06/30 00:58:09;;;;;;;4.03;3.40;;;21.30;99.90;;;;;;5109571;28;20042;-65
2021/06/30 01:00:35;;;;;;;4.10;3.50;;;21.30;99.90;;;;;;5107949;28;20024;-63
2021/06/30 01:03:01;;;;;;;4.32;3.75;;;21.20;99.90;;;;;;5090890;28;20464;-63
2021/06/30 01:05:27;;;;;;;3.70;3.33;;;21.30;99.90;;;;;;5092191;28;20101;-63
2021/06/30 01:07:53;;;;;;;4.32;3.58;;;21.30;99.90;;;;;;5096693;28;20058;-63
2021/06/30 01:10:19;;;;;;;4.40;4.00;;;21.30;99.90;;;;;;5112813;28;20027;-63
2021/06/30 01:12:44;;;;;;;4.22;3.72;;;21.20;99.90;;;;;;5107149;28;20020;-63
2021/06/30 01:15:11;;;;;;;4.70;3.88;;;21.20;99.90;;;;;;5098170;28;20024;-65
2021/06/30 01:17:37;;;;;;;4.90;3.80;;;21.20;99.90;;;;;;5094482;28;20020;-65
2021/06/30 01:20:05;;;;;;;6.05;3.85;;;21.20;99.90;;;;;;5094784;28;20424;-63
2021/06/30 01:22:32;;;;;;;4.32;3.92;;;21.20;99.90;;;;;;5108628;28;20137;-62
2021/06/30 01:24:58;;;;;;;4.10;3.70;;;21.20;99.90;;;;;;5113551;28;20055;-63
2021/06/30 01:27:30;;;;;;;4.20;3.60;;;21.20;99.90;;;;;;5096707;28;20349;-64
2021/06/30 01:29:57;;;;;;;4.07;3.55;;;21.20;99.90;;;;;;5095834;28;20023;-65
2021/06/30 01:32:24;;;;;;;4.22;3.72;;;21.10;99.90;;;;;;5103316;28;20027;-65
2021/06/30 01:34:50;;;;;;;4.60;3.30;;;21.20;99.90;;;;;;5092326;28;20400;-64
2021/06/30 01:37:16;;;;;;;5.10;4.10;;;21.10;99.90;;;;;;5094567;28;20457;-64
2021/06/30 01:39:41;;;;;;;4.57;3.97;;;21.10;99.90;;;;;;5094230;28;20024;-65
2021/06/30 01:42:07;;;;;;;4.15;3.75;;;21.10;99.90;;;;;;5094242;28;20031;-63
2021/06/30 01:44:33;;;;;;;4.80;3.58;;;21.10;99.90;;;;;;5097394;28;20039;-65
2021/06/30 01:46:59;;;;;;;4.10;3.70;;;21.10;99.90;;;;;;5095090;28;20031;-64
2021/06/30 01:49:24;;;;;;;4.07;3.67;;;21.10;99.90;;;;;;5094180;28;20415;-63
2021/06/30 01:51:50;;;;;;;4.88;3.25;;;21.10;99.90;;;;;;5102506;28;20035;-63
2021/06/30 01:54:16;;;;;;;4.30;3.47;;;21.10;99.90;;;;;;5112753;28;20032;-64
2021/06/30 01:56:46;;;;;;;4.15;3.75;;;21.10;99.90;;;;;;5101728;28;20487;-65
2021/06/30 01:59:14;;;;;;;5.15;3.45;;;21.10;99.90;;;;;;5095095;28;20038;-64
2021/06/30 02:01:40;;;;;;;4.43;3.28;;;21.10;99.90;;;;;;5105063;28;20031;-64
2021/06/30 02:04:07;;;;;;;4.90;3.40;;;21.10;99.90;;;;;;5093351;28;20102;-64
2021/06/30 02:06:41;;;;;;;3.80;3.40;;;21.10;99.90;;;;;;5093625;28;20141;-63
2021/06/30 02:09:08;;;;;;;4.32;3.67;;;21.10;99.90;;;;;;5094042;28;20032;-65
2021/06/30 02:11:35;;;;;;;4.28;3.30;;;21.10;99.90;;;;;;5093943;28;20062;-64
2021/06/30 02:14:01;;;;;;;4.40;3.28;;;21.10;99.90;;;;;;5103390;28;20028;-63
2021/06/30 02:16:27;;;;;;;4.65;3.20;;;21.10;99.90;;;;;;5097462;28;20020;-65
2021/06/30 02:18:52;;;;;;;3.78;3.35;;;21.10;99.90;;;;;;5093555;28;20063;-64
2021/06/30 02:21:18;;;;;;;3.55;3.10;;;21.10;99.90;;;;;;5105830;28;20028;-64
2021/06/30 02:23:44;;;;;;;3.10;2.80;;;21.10;99.90;;;;;;5106833;28;20057;-66
2021/06/30 02:26:10;;;;;;;4.13;3.17;;;21.00;99.90;;;;;;5113151;28;20028;-64
2021/06/30 02:28:36;;;;;;;6.65;3.15;;;21.00;99.90;;;;;;5108076;28;20031;-66
2021/06/30 02:31:02;;;;;;;3.70;3.25;;;21.00;99.90;;;;;;5107661;28;20119;-65
2021/06/30 02:33:28;;;;;;;3.88;3.25;;;21.00;99.90;;;;;;5093538;28;20024;-64
2021/06/30 02:35:55;;;;;;;3.50;3.05;;;21.00;99.90;;;;;;5093597;28;20024;-64
2021/06/30 02:38:20;;;;;;;3.92;3.13;;;21.00;99.90;;;;;;5113453;28;20039;-65
2021/06/30 02:40:46;;;;;;;4.05;3.28;;;21.00;99.90;;;;;;5107864;28;20032;-65
2021/06/30 02:43:12;;;;;;;5.05;3.55;;;21.00;99.90;;;;;;5092656;28;20036;-64
2021/06/30 02:45:37;;;;;;;3.95;3.30;;;21.00;99.90;;;;;;5105038;28;20061;-64
2021/06/30 02:48:03;;;;;;;3.63;2.90;;;21.00;99.90;;;;;;5113467;28;20051;-65
2021/06/30 02:50:29;;;;;;;3.63;2.95;;;21.00;99.90;;;;;;5112832;28;20020;-63
2021/06/30 02:52:55;;;;;;;4.03;3.30;;;21.00;99.90;;;;;;5093756;28;20031;-65
2021/06/30 02:55:21;;;;;;;3.92;3.10;;;21.00;99.90;;;;;;5092899;28;20020;-64
2021/06/30 02:57:48;;;;;;;3.70;3.03;;;21.00;99.90;;;;;;5093783;28;20054;-65
2021/06/30 03:00:20;;;;;;;4.05;3.22;;;21.00;99.90;;;;;;5092881;28;20050;-65
2021/06/30 03:02:46;;;;;;;3.10;2.80;;;21.00;99.90;;;;;;5107969;28;20020;-63
2021/06/30 03:05:12;;;;;;;4.00;3.22;;;21.00;99.90;;;;;;5113011;28;20028;-64
2021/06/30 03:07:38;;;;;;;3.80;2.72;;;21.00;99.90;;;;;;5095261;28;20027;-66
2021/06/30 03:10:06;;;;;;;4.18;3.17;;;21.00;99.90;;;;;;5092689;28;20032;-64
2021/06/30 03:12:33;;;;;;;3.60;2.90;;;21.00;99.90;;;;;;5092020;28;20033;-65
2021/06/30 03:14:58;;;;;;;4.93;3.03;;;21.00;99.90;;;;;;5109839;28;20489;-63
2021/06/30 03:17:24;;;;;;;4.55;3.28;;;21.00;99.90;;;;;;5112941;28;20020;-64
2021/06/30 03:19:50;;;;;;;3.35;3.05;;;21.00;99.90;;;;;;5109307;28;20046;-67
2021/06/30 03:22:15;;;;;;;3.30;3.00;;;20.90;99.90;;;;;;5092140;28;20081;-65
2021/06/30 03:24:41;;;;;;;4.22;3.10;;;20.90;99.90;;;;;;5091442;28;20399;-64
2021/06/30 03:27:07;;;;;;;3.13;2.80;;;21.00;99.90;;;;;;5092546;28;20543;-64
2021/06/30 03:29:33;;;;;;;3.55;2.80;;;20.90;99.90;;;;;;5092324;28;20028;-66
2021/06/30 03:31:58;;;;;;;3.50;3.08;;;20.90;99.90;;;;;;5100702;28;20017;-65
2021/06/30 03:34:24;;;;;;;3.85;3.15;;;20.90;99.90;;;;;;5094509;28;20077;-64
2021/06/30 03:36:49;;;;;;;3.97;2.70;;;20.90;99.90;;;;;;5091852;28;20020;-64
2021/06/30 03:39:15;;;;;;;5.47;3.00;;;20.90;99.90;;;;;;5092021;28;20423;-64
2021/06/30 03:41:41;;;;;;;4.05;2.90;;;20.90;99.90;;;;;;5097206;28;20448;-64
2021/06/30 03:44:07;;;;;;;4.78;3.03;;;20.90;99.90;;;;;;5105961;28;20122;-65
2021/06/30 03:46:32;;;;;;;4.38;3.45;;;20.90;99.90;;;;;;5091946;28;20103;-65
2021/06/30 03:48:58;;;;;;;3.88;3.00;;;20.80;99.90;;;;;;5092146;28;20043;-65
2021/06/30 03:51:24;;;;;;;4.30;2.88;;;20.90;99.90;;;;;;5091529;28;20028;-65
2021/06/30 03:53:49;;;;;;;3.75;2.78;;;20.80;99.90;;;;;;5095668;28;20081;-64
2021/06/30 03:56:15;;;;;;;4.68;2.70;;;20.90;99.90;;;;;;5092093;28;20445;-63
2021/06/30 03:58:41;;;;;;;3.92;2.95;;;20.90;99.90;;;;;;5108414;28;20023;-65
2021/06/30 04:01:06;;;;;;;3.85;3.03;;;20.90;99.90;;;;;;5109425;28;20024;-65
2021/06/30 04:03:32;;;;;;;3.05;2.75;;;20.90;99.90;;;;;;5095227;28;20544;-65
2021/06/30 04:05:58;;;;;;;2.70;2.50;;;20.90;99.90;;;;;;5090473;28;20125;-65
2021/06/30 04:08:24;;;;;;;4.18;3.05;;;20.90;99.90;;;;;;5091845;28;20146;-66
2021/06/30 04:10:50;;;;;;;3.35;3.00;;;20.80;99.90;;;;;;5091311;28;20020;-65
2021/06/30 04:13:16;;;;;;;3.78;2.70;;;20.80;99.90;;;;;;5105684;28;20093;-65
2021/06/30 04:15:43;;;;;;;5.13;3.10;;;20.80;99.90;;;;;;5111960;28;20030;-65
2021/06/30 04:18:09;;;;;;;3.75;3.00;;;20.80;99.90;;;;;;5111326;28;20031;-67
2021/06/30 04:20:35;;;;;;;3.00;2.67;;;20.80;99.90;;;;;;5111337;28;20023;-65
2021/06/30 04:23:00;;;;;;;3.10;2.80;;;20.80;99.90;;;;;;5098624;28;20392;-66
2021/06/30 04:25:26;;;;;;;4.43;2.70;;;20.80;99.90;;;;;;5097083;28;20036;-65
2021/06/30 04:27:52;;;;;;;3.90;2.88;;;20.80;99.90;;;;;;5091321;28;20024;-66
2021/06/30 04:30:18;;;;;;;3.55;2.63;;;20.80;99.90;;;;;;5091471;28;20467;-63
2021/06/30 04:32:43;;;;;;;3.50;2.42;;;20.80;99.90;;;;;;5100570;28;20027;-64
2021/06/30 04:35:09;;;;;;;3.45;2.78;;;20.80;99.90;;;;;;5111601;28;20351;-65
2021/06/30 04:37:35;;;;;;;3.33;2.85;;;20.80;99.90;;;;;;5110278;28;20460;-64
2021/06/30 04:40:03;;;;;;;4.18;3.00;;;20.80;99.90;;;;;;5096471;28;20035;-64
2021/06/30 04:42:28;;;;;;;4.80;2.72;;;20.80;99.90;;;;;;5098783;28;20389;-65
2021/06/30 04:44:54;;;;;;;3.47;3.00;;;20.80;99.90;;;;;;5091646;28;20499;-65
2021/06/30 04:47:20;;;;;;;4.18;2.97;;;20.80;99.90;;;;;;5096486;28;20026;-65
2021/06/30 04:49:45;;;;;;;4.88;2.78;;;20.80;99.90;;;;;;5095061;28;20103;-64
2021/06/30 04:52:11;;;;;;;3.83;2.95;;;20.80;99.90;;;;;;5097863;28;20028;-66
2021/06/30 04:54:37;;;;;;;4.10;2.95;;;20.80;99.90;;;;;;5095858;28;20023;-67
2021/06/30 04:57:03;;;;;;;5.03;3.03;;;20.80;99.90;;;;;;5095314;28;20059;-65
2021/06/30 04:59:28;;;;;;;3.17;2.88;;;20.80;99.90;;;;;;5095494;28;20020;-65
2021/06/30 05:01:54;;;;;;;3.50;2.83;;;20.80;99.90;;;;;;5095500;28;20036;-67
2021/06/30 05:04:21;;;;;;;3.70;2.78;;;20.80;99.90;;;;;;5095023;28;20032;-65
2021/06/30 05:06:46;;;;;;;4.30;2.67;;;20.80;99.90;;;;;;5096155;28;20111;-65
2021/06/30 05:09:13;;;;;;;3.25;2.85;;;20.80;99.90;;;;;;5095208;28;20454;-66
2021/06/30 05:11:38;;;;;;;4.22;3.15;;;20.80;99.90;;;;;;5094645;28;20122;-65
2021/06/30 05:14:05;;;;;;;5.43;3.20;;;20.80;99.90;;;;;;5094916;28;20103;-66
2021/06/30 05:16:30;;;;;;;4.40;2.92;;;20.80;99.90;;;;;;5104420;28;20386;-66
2021/06/30 05:18:56;;;;;;;4.15;2.90;;;20.80;99.90;;;;;;5115445;28;20107;-66
2021/06/30 05:21:22;;;;;;;3.13;2.70;;;20.80;99.90;;;;;;5101909;27;20024;-66
2021/06/30 05:23:48;;;;;;;3.05;2.55;;;20.80;99.90;;;;;;5099196;28;20040;-67
2021/06/30 05:26:14;;;;;;;3.65;2.95;;;20.80;99.90;;;;;;5095674;28;20533;-65
2021/06/30 05:28:39;;;;;;;3.08;2.60;;;20.80;99.90;;;;;;5105551;28;20024;-66
2021/06/30 05:31:05;;;;;;;4.30;2.92;;;20.80;99.90;;;;;;5094308;28;20055;-67
2021/06/30 05:33:31;;;;;;;6.05;3.03;;;20.70;99.90;;;;;;5095245;28;20020;-63
2021/06/30 05:35:56;;;;;;;3.38;2.65;;;20.70;99.90;;;;;;5094910;28;20023;-66
2021/06/30 05:38:23;;;;;;;3.42;2.70;;;20.70;99.90;;;;;;5095441;28;20125;-66
2021/06/30 05:40:49;;;;;;;3.65;2.97;;;20.80;99.90;;;;;;5095023;28;20039;-66
2021/06/30 05:43:14;;;;;;;3.60;3.10;;;20.70;99.90;;;;;;5111276;28;20031;-66
2021/06/30 05:45:41;;;;;;;3.55;3.00;;;20.80;99.90;;;;;;5113929;28;20024;-66
2021/06/30 05:48:06;;;;;;;5.43;2.90;;;20.70;99.90;;;;;;5102841;28;20035;-66
2021/06/30 05:50:32;;;;;;;3.88;2.70;;;20.80;99.90;;;;;;5093326;28;20024;-64
2021/06/30 05:52:58;;;;;;;3.60;2.80;;;20.80;99.90;;;;;;5098054;28;20020;-64
2021/06/30 05:55:24;;;;;;;3.45;2.53;;;20.70;99.90;;;;;;5093927;28;20024;-69
2021/06/30 05:57:49;;;;;;;4.95;3.03;;;20.70;99.90;;;;;;5106175;28;20047;-62
2021/06/30 06:00:19;;;;;;;6.05;3.50;;;20.70;99.90;;;;;;5093757;28;20085;-65
2021/06/30 06:02:45;;;;;;;5.47;3.70;;;20.70;99.90;;;;;;5093833;28;20028;-64
2021/06/30 06:05:11;;;;;;;7.50;3.97;;;20.70;99.90;;;;;;5094173;28;20081;-65
2021/06/30 06:07:37;;;;;;;6.95;3.85;;;20.70;99.90;;;;;;5099753;28;20425;-68
2021/06/30 06:10:08;;;;;;;11.10;5.25;;;20.70;99.90;;;;;;5113874;28;20023;-66
2021/06/30 06:12:34;;;;;;;7.53;4.90;;;20.70;99.90;;;;;;5093597;28;20060;-65
2021/06/30 06:15:00;;;;;;;8.45;5.75;;;20.70;99.90;;;;;;5093865;28;20020;-62
2021/06/30 06:17:26;;;;;;;9.95;5.90;;;20.60;99.90;;;;;;5094893;28;20565;-62
2021/06/30 06:19:52;;;;;;;9.57;5.05;;;20.60;99.90;;;;;;5093335;28;20117;-62
2021/06/30 06:22:18;;;;;;;12.40;5.90;;;20.60;99.90;;;;;;5094863;28;20035;-60
2021/06/30 06:24:43;;;;;;;12.05;5.65;;;20.50;99.90;;;;;;5101818;28;20529;-61
2021/06/30 06:27:10;;;;;;;9.10;5.50;;;20.50;99.90;;;;;;5105238;28;20451;-61
2021/06/30 06:29:37;;;;;;;8.30;5.55;;;20.50;99.90;;;;;;5093034;28;20040;-63
2021/06/30 06:32:03;;;;;;;11.27;5.90;;;20.50;99.90;;;;;;5100084;28;20056;-62
2021/06/30 06:34:29;;;;;;;9.73;5.60;;;20.50;99.90;;;;;;5093082;28;20024;-65
2021/06/30 06:36:56;;;;;;;8.50;5.55;;;20.40;99.90;;;;;;5095691;28;20042;-61
2021/06/30 06:39:22;;;;;;;9.27;5.70;;;20.40;99.90;;;;;;5102403;28;20019;-63
2021/06/30 06:41:48;;;;;;;9.55;5.50;;;20.40;99.90;;;;;;5099931;28;20472;-62
2021/06/30 06:44:15;;;;;;;9.30;5.50;;;20.30;99.90;;;;;;5092616;28;20565;-62
2021/06/30 06:46:41;;;;;;;11.15;5.20;;;20.30;99.90;;;;;;5092819;28;20023;-63
2021/06/30 06:49:08;;;;;;;8.40;4.47;;;20.30;99.90;;;;;;5104913;28;20028;-62
2021/06/30 06:51:36;;;;;;;7.10;4.30;;;20.30;99.90;;;;;;5097640;28;20465;-64
2021/06/30 06:54:03;;;;;;;8.13;4.20;;;20.40;99.90;;;;;;5084391;28;20032;-65
2021/06/30 06:56:28;;;;;;;7.38;4.57;;;20.40;99.90;;;;;;5097222;28;20024;-66
2021/06/30 06:58:55;;;;;;;6.97;4.63;;;20.40;99.90;;;;;;5112957;28;20034;-65
2021/06/30 07:01:22;;;;;;;8.52;4.40;;;20.40;99.90;;;;;;5104662;28;20032;-66
2021/06/30 07:03:48;;;;;;;5.65;4.18;;;20.40;99.90;;;;;;5092288;28;20042;-67
2021/06/30 07:06:14;;;;;;;6.60;3.85;;;20.50;99.90;;;;;;5092788;28;20016;-66
2021/06/30 07:08:40;;;;;;;6.97;4.30;;;20.50;99.90;;;;;;5091605;28;20024;-68
2021/06/30 07:11:08;;;;;;;5.18;3.80;;;20.50;99.90;;;;;;5092447;28;20055;-68
2021/06/30 07:13:34;;;;;;;4.85;3.53;;;20.50;99.90;;;;;;5092493;28;20027;-67
2021/06/30 07:16:00;;;;;;;7.38;4.30;;;20.50;99.90;;;;;;5092792;28;20408;-66
2021/06/30 07:18:25;;;;;;;6.20;3.78;;;20.50;99.90;;;;;;5092270;28;20064;-66
2021/06/30 07:20:52;;;;;;;4.63;3.55;;;20.50;99.90;;;;;;5097267;28;20042;-66
2021/06/30 07:23:17;;;;;;;6.93;3.75;;;20.60;99.90;;;;;;5091083;28;20044;-64
2021/06/30 07:25:44;;;;;;;5.90;3.60;;;20.60;99.90;;;;;;5093581;28;20034;-64
2021/06/30 07:28:10;;;;;;;5.80;3.83;;;20.60;99.90;;;;;;5097353;28;20096;-64
2021/06/30 07:30:36;;;;;;;5.95;4.13;;;20.60;99.90;;;;;;5091917;28;20484;-63
2021/06/30 07:33:02;;;;;;;5.50;3.70;;;20.70;99.90;;;;;;5095883;28;20035;-64
2021/06/30 07:35:27;;;;;;;7.55;4.25;;;20.70;99.90;;;;;;5104408;28;20479;-66
2021/06/30 07:37:54;;;;;;;9.82;4.25;;;20.70;99.90;;;;;;5112357;28;20043;-65
2021/06/30 07:40:19;;;;;;;9.32;4.07;;;20.70;99.90;;;;;;5112377;28;20018;-69
2021/06/30 07:42:45;;;;;;;8.77;3.85;;;20.80;99.90;;;;;;5112139;28;20031;-66
2021/06/30 07:45:11;;;;;;;6.38;3.90;;;20.80;99.90;;;;;;5103203;28;20024;-65
2021/06/30 07:47:37;;;;;;;9.80;3.70;;;20.80;99.90;;;;;;5109341;28;20026;-65
2021/06/30 07:50:07;;;;;;;7.53;3.67;;;20.80;99.90;;;;;;5112260;28;20020;-67
2021/06/30 07:52:33;;;;;;;7.15;4.15;;;20.80;99.90;;;;;;5111993;28;20090;-68
2021/06/30 07:54:59;;;;;;;6.25;4.00;;;20.90;99.90;;;;;;5104492;28;20050;-66
2021/06/30 07:57:25;;;;;;;6.57;4.10;;;20.90;99.90;;;;;;5091320;28;20053;-66
2021/06/30 07:59:51;;;;;;;8.07;4.28;;;20.90;99.90;;;;;;5091553;28;20103;-66
2021/06/30 08:02:16;;;;;;;6.93;4.28;;;20.90;99.90;;;;;;5091728;28;20392;-65
2021/06/30 08:04:42;;;;;;;5.53;4.00;;;21.00;99.90;;;;;;5091052;28;20036;-66
2021/06/30 08:07:08;;;;;;;6.13;4.50;;;21.00;99.90;;;;;;5091715;28;20027;-66
2021/06/30 08:09:35;;;;;;;6.95;4.88;;;21.00;99.90;;;;;;5091320;28;20028;-66
2021/06/30 08:12:03;;;;;;;8.02;4.57;;;21.00;99.90;;;;;;5091641;28;20487;-67
2021/06/30 08:14:29;;;;;;;6.40;4.30;;;21.00;99.90;;;;;;5091719;28;20051;-67
2021/06/30 08:16:55;;;;;;;6.35;4.28;;;21.00;99.90;;;;;;5091480;28;20463;-67
2021/06/30 08:19:20;;;;;;;7.57;4.32;;;21.00;99.90;;;;;;5091146;28;20578;-66
2021/06/30 08:21:46;;;;;;;7.10;4.57;;;21.00;99.90;;;;;;5091528;28;20024;-67
2021/06/30 08:24:12;;;;;;;5.55;4.82;;;21.00;99.90;;;;;;5090881;28;20047;-66
2021/06/30 08:26:38;;;;;;;7.57;4.63;;;21.10;99.90;;;;;;5091071;28;20404;-66
2021/06/30 08:29:04;;;;;;;8.25;5.40;;;21.10;99.90;;;;;;5091368;28;20040;-66
2021/06/30 08:31:29;;;;;;;8.70;5.07;;;21.10;99.90;;;;;;5109690;28;20047;-66
2021/06/30 08:33:55;;;;;;;5.82;4.85;;;21.20;99.90;;;;;;5111592;28;20483;-65
2021/06/30 08:36:21;;;;;;;9.50;5.30;;;21.20;99.90;;;;;;5095208;28;20081;-65
2021/06/30 08:38:47;;;;;;;7.18;4.70;;;21.20;99.90;;;;;;5090996;28;20115;-65
2021/06/30 08:41:13;;;;;;;9.43;5.05;;;21.20;99.90;;;;;;5095013;28;20056;-66
2021/06/30 08:43:39;;;;;;;7.72;5.18;;;21.20;99.90;;;;;;5095221;28;20539;-65
2021/06/30 08:46:07;;;;;;;7.65;4.82;;;21.20;99.90;;;;;;5097727;28;20024;-65
2021/06/30 08:48:35;;;;;;;8.63;5.53;;;21.30;99.90;;;;;;5091040;28;20024;-66
2021/06/30 08:51:02;;;;;;;11.68;5.32;;;21.30;99.90;;;;;;5091512;28;20099;-66
2021/06/30 08:53:29;;;;;;;8.40;5.03;;;21.30;99.90;;;;;;5091632;28;20028;-66
2021/06/30 08:55:55;;;;;;;12.00;5.50;;;21.30;99.90;;;;;;5090447;28;20020;-66
2021/06/30 08:58:21;;;;;;;10.48;5.45;;;21.40;99.90;;;;;;5091110;28;20024;-66
2021/06/30 09:00:47;;;;;;;7.68;4.68;;;21.40;99.90;;;;;;5094451;28;20390;-66
2021/06/30 09:03:17;;;;;;;6.78;4.72;;;21.40;99.90;;;;;;5111534;28;20039;-65
2021/06/30 09:08:20;;;;;;;8.75;4.60;;;21.40;99.90;;;;;;5111438;28;20053;-65
2021/06/30 09:10:46;;;;;;;7.15;4.30;;;21.40;99.90;;;;;;5109474;28;20184;-66
2021/06/30 09:13:26;;;;;;;12.15;4.28;;;21.40;99.90;;;;;;5111457;28;20019;-65
2021/06/30 09:16:02;;;;;;;7.55;3.92;;;21.50;99.90;;;;;;5100671;28;20078;-65
2021/06/30 09:18:40;;;;;;;9.77;4.15;;;21.50;99.90;;;;;;5094509;28;20030;-64
2021/06/30 09:21:19;;;;;;;6.00;4.03;;;21.50;99.90;;;;;;5100901;28;20479;-65
2021/06/30 09:24:02;;;;;;;6.45;4.65;;;21.50;99.90;;;;;;5089577;28;20032;-65
2021/06/30 09:26:31;;;;;;;5.25;3.90;;;21.60;99.90;;;;;;5089265;28;20024;-65
2021/06/30 09:29:11;;;;;;;8.73;4.65;;;21.50;99.90;;;;;;5090900;28;20032;-65
2021/06/30 09:31:41;;;;;;;6.40;4.18;;;21.50;99.90;;;;;;5092891;28;20027;-65
2021/06/30 09:34:07;;;;;;;7.97;4.10;;;21.60;99.90;;;;;;5094890;28;20028;-66
2021/06/30 09:36:53;;;;;;;10.07;4.15;;;21.60;99.90;;;;;;5093977;28;20502;-66
2021/06/30 09:39:19;;;;;;;12.40;3.92;;;21.60;99.90;;;;;;5094140;28;20032;-66
2021/06/30 09:41:46;;;;;;;8.70;3.88;;;21.60;99.90;;;;;;5094189;28;20491;-64
2021/06/30 09:44:19;;;;;;;7.80;3.88;;;21.60;99.90;;;;;;5094264;28;20036;-65
2021/06/30 09:46:46;;;;;;;6.43;3.42;;;21.60;99.90;;;;;;5093903;28;20522;-64
2021/06/30 09:49:16;;;;;;;7.93;3.50;;;21.60;99.90;;;;;;5099995;28;20111;-63
2021/06/30 09:51:44;;;;;;;6.55;3.30;;;21.60;99.90;;;;;;5114445;28;20016;-65
2021/06/30 09:54:15;;;;;;;9.95;3.35;;;21.60;99.90;;;;;;5113663;28;20061;-64
2021/06/30 09:56:56;;;;;;;10.75;3.63;;;21.60;99.90;;;;;;5092114;28;20020;-63
2021/06/30 09:59:24;;;;;;;6.10;3.20;;;21.70;99.90;;;;;;5092061;28;20058;-66
2021/06/30 10:02:04;;;;;;;10.00;3.22;;;21.70;99.90;;;;;;5093716;28;20023;-70
2021/06/30 10:04:36;;;;;;;8.85;3.30;;;21.70;99.90;;;;;;5094943;28;20031;-65
2021/06/30 10:07:07;;;;;;;6.90;3.10;;;21.70;99.90;;;;;;5093879;28;20103;-66
2021/06/30 10:09:34;;;;;;;5.95;2.90;;;21.60;99.90;;;;;;5092925;28;20024;-66
2021/06/30 10:12:09;;;;;;;8.68;2.90;;;21.60;99.90;;;;;;5092800;28;20715;-65
2021/06/30 10:14:36;;;;;;;5.75;2.80;;;21.60;99.90;;;;;;5092157;28;20472;-65
2021/06/30 10:17:02;;;;;;;5.82;2.97;;;21.60;99.90;;;;;;5092375;28;20032;-63
2021/06/30 10:19:29;;;;;;;5.63;2.65;;;21.60;99.90;;;;;;5093553;28;20062;-65
2021/06/30 10:21:55;;;;;;;5.93;3.00;;;21.60;99.90;;;;;;5092976;28;20028;-66
2021/06/30 10:24:22;;;;;;;5.88;3.15;;;21.60;99.90;;;;;;5092032;28;20097;-65
2021/06/30 10:26:49;;;;;;;4.43;3.25;;;21.60;99.90;;;;;;5091782;28;20471;-64
2021/06/30 10:29:15;;;;;;;6.90;2.83;;;21.60;99.90;;;;;;5092299;28;20556;-67
2021/06/30 10:31:42;;;;;;;5.22;2.88;;;21.60;99.90;;;;;;5093298;28;20032;-67
2021/06/30 10:34:10;;;;;;;6.43;2.72;;;21.60;99.90;;;;;;5098941;28;20031;-66
2021/06/30 10:36:50;;;;;;;5.68;2.50;;;21.50;99.90;;;;;;5102986;28;20110;-66
2021/06/30 10:39:18;;;;;;;4.90;2.40;;;21.50;99.90;;;;;;5092967;28;20055;-67
2021/06/30 10:41:54;;;;;;;3.33;2.25;;;21.50;99.90;;;;;;5090618;28;20016;-67
2021/06/30 10:44:22;;;;;;;5.45;2.50;;;21.50;99.90;;;;;;5090648;28;20092;-67
2021/06/30 10:46:49;;;;;;;3.33;2.25;;;21.50;99.90;;;;;;5088784;28;20570;-66
2021/06/30 10:49:15;;;;;;;4.40;2.40;;;21.50;99.90;;;;;;5090690;28;20065;-67
2021/06/30 10:51:46;;;;;;;3.92;1.95;;;21.50;99.90;;;;;;5090008;28;20107;-67
2021/06/30 10:54:35;;;;;;;2.63;2.00;;;21.50;99.90;;;;;;5089202;28;20069;-66
2021/06/30 10:57:28;;;;;;;2.08;1.60;;;21.50;99.90;;;;;;5090276;28;20059;-66
2021/06/30 11:00:06;;;;;;;3.63;1.98;;;21.50;99.90;;;;;;5090432;28;20032;-67
2021/06/30 11:02:34;;;;;;;4.10;1.60;;;21.50;99.90;;;;;;5089703;28;20035;-67
2021/06/30 11:05:15;;;;;;;3.40;1.80;;;21.40;99.90;;;;;;5090637;28;20028;-66
2021/06/30 11:07:42;;;;;;;3.22;2.08;;;21.50;99.90;;;;;;5089552;28;20032;-67
2021/06/30 11:10:17;;;;;;;2.22;1.80;;;21.40;99.90;;;;;;5090386;28;20032;-67
2021/06/30 11:12:50;;;;;;;2.08;1.65;;;21.40;99.90;;;;;;5089781;28;20060;-67
2021/06/30 11:15:40;;;;;;;3.83;1.88;;;21.40;99.90;;;;;;5089640;28;20027;-67
2021/06/30 11:18:09;;;;;;;3.58;2.00;;;21.40;99.90;;;;;;5089105;28;20068;-67
2021/06/30 11:20:52;;;;;;;2.67;1.85;;;21.40;99.90;;;;;;5090968;28;20024;-64
2021/06/30 11:23:19;;;;;;;3.25;2.17;;;21.40;99.90;;;;;;5089738;28;20549;-67
2021/06/30 11:25:46;;;;;;;3.83;2.28;;;21.40;99.90;;;;;;5091034;28;20387;-67
2021/06/30 11:28:36;;;;;;;3.00;1.80;;;21.40;99.90;;;;;;5091040;28;20384;-67
2021/06/30 11:31:27;;;;;;;3.28;2.08;;;21.40;99.90;;;;;;5091016;28;20028;-68
2021/06/30 11:34:11;;;;;;;2.85;1.77;;;21.40;99.90;;;;;;5093541;28;20518;-66
2021/06/30 11:36:42;;;;;;;2.40;1.75;;;21.40;99.90;;;;;;5088936;28;20046;-68
2021/06/30 11:39:10;;;;;;;2.88;1.90;;;21.40;99.90;;;;;;5090366;28;20036;-66
2021/06/30 11:41:52;;;;;;;4.38;2.00;;;21.30;99.90;;;;;;5090230;28;20035;-67
2021/06/30 11:44:20;;;;;;;2.40;1.90;;;21.30;99.90;;;;;;5090345;28;20568;-67
2021/06/30 11:46:48;;;;;;;4.40;1.95;;;21.30;99.90;;;;;;5090661;28;20186;-67
2021/06/30 11:49:18;;;;;;;2.95;1.60;;;21.30;99.90;;;;;;5090978;28;20388;-68
2021/06/30 11:51:54;;;;;;;4.68;1.40;;;21.20;99.90;;;;;;5091170;28;20093;-66
2021/06/30 11:54:21;;;;;;;2.53;1.50;;;21.20;99.90;;;;;;5095850;28;20020;-68
2021/06/30 11:56:46;;;;;;;4.65;1.67;;;21.20;99.90;;;;;;5091672;28;20056;-68
2021/06/30 11:59:17;;;;;;;2.63;1.58;;;21.20;99.90;;;;;;5104341;28;20055;-68
2021/06/30 12:01:43;;;;;;;2.40;1.20;;;21.20;99.90;;;;;;5090872;28;20034;-69
2021/06/30 12:04:26;;;;;;;3.72;1.50;;;21.20;99.90;;;;;;5091964;28;20036;-69
2021/06/30 12:06:57;;;;;;;1.55;1.30;;;21.30;99.90;;;;;;5091786;28;20129;-69
2021/06/30 12:09:29;;;;;;;4.20;1.73;;;21.30;99.90;;;;;;5091474;28;20024;-68
2021/06/30 12:12:13;;;;;;;2.45;1.40;;;21.30;99.90;;;;;;5091472;28;20376;-68
2021/06/30 12:14:45;;;;;;;2.95;1.58;;;21.30;99.90;;;;;;5091187;28;20028;-68
2021/06/30 12:17:14;;;;;;;4.10;1.58;;;21.30;99.90;;;;;;5097804;28;20028;-68
2021/06/30 12:19:45;;;;;;;2.50;1.60;;;21.30;99.90;;;;;;5108491;28;20085;-69
2021/06/30 12:22:25;;;;;;;2.55;1.55;;;21.40;99.90;;;;;;5091516;28;20028;-68
2021/06/30 12:25:01;;;;;;;2.05;1.70;;;21.40;99.90;;;;;;5091602;28;20382;-67
2021/06/30 12:27:40;;;;;;;3.10;1.80;;;21.40;99.90;;;;;;5092052;28;20016;-67
2021/06/30 12:30:13;;;;;;;3.20;1.50;;;21.40;99.90;;;;;;5091089;28;20016;-68
2021/06/30 12:32:51;;;;;;;2.75;1.60;;;21.40;99.90;;;;;;5091404;28;20035;-68
2021/06/30 12:35:23;;;;;;;3.95;1.90;;;21.40;99.90;;;;;;5091486;28;20032;-68
2021/06/30 12:37:56;;;;;;;2.80;1.55;;;21.50;99.90;;;;;;5091192;28;20016;-68
2021/06/30 12:40:22;;;;;;;3.63;1.50;;;21.50;99.90;;;;;;5091000;28;20031;-67
2021/06/30 12:42:52;;;;;;;2.53;1.65;;;21.50;99.90;;;;;;5091199;28;20099;-67
2021/06/30 12:45:35;;;;;;;2.45;1.65;;;21.50;99.90;;;;;;5091377;28;20047;-67
2021/06/30 12:48:08;;;;;;;2.75;1.48;;;21.50;99.90;;;;;;5091867;28;20020;-68
2021/06/30 12:50:52;;;;;;;4.15;1.60;;;21.50;99.90;;;;;;5090864;28;20031;-68
2021/06/30 12:53:24;;;;;;;2.33;1.38;;;21.50;99.90;;;;;;5091437;28;20036;-68